sensor_id;sensor_type;location;lat;lon;timestamp;temperature;humidity
56240;DHT22;42154;51.992;5.896;2024-02-21T00:02:12;10.00;99.90
56240;DHT22;42154;51.992;5.896;2024-02-21T00:04:38;10.00;99.90
56240;DHT22;42154;51.992;5.896;2024-02-21T00:07:04;10.00;99.90
56240;DHT22;42154;51.992;5.896;2024-02-21T00:09:30;10.00;99.90
56240;DHT22;42154;51.992;5.896;2024-02-21T00:11:56;10.00;99.90
56240;DHT22;42154;51.992;5.896;2024-02-21T00:14:22;10.00;99.90
56240;DHT22;42154;51.992;5.896;2024-02-21T00:16:47;10.00;99.90
56240;DHT22;42154;51.992;5.896;2024-02-21T00:19:13;10.00;99.90
56240;DHT22;42154;51.992;5.896;2024-02-21T00:21:40;10.00;99.90
56240;DHT22;42154;51.992;5.896;2024-02-21T00:24:06;10.00;99.90
56240;DHT22;42154;51.992;5.896;2024-02-21T00:26:32;10.00;99.90
56240;DHT22;42154;51.992;5.896;2024-02-21T00:28:57;10.10;99.90
56240;DHT22;42154;51.992;5.896;2024-02-21T00:31:23;10.00;99.90
56240;DHT22;42154;51.992;5.896;2024-02-21T00:33:49;10.00;99.90
56240;DHT22;42154;51.992;5.896;2024-02-21T00:36:16;10.00;99.90
56240;DHT22;42154;51.992;5.896;2024-02-21T00:38:42;10.00;99.90
56240;DHT22;42154;51.992;5.896;2024-02-21T00:41:07;10.00;99.90
56240;DHT22;42154;51.992;5.896;2024-02-21T00:43:33;10.00;99.90
56240;DHT22;42154;51.992;5.896;2024-02-21T00:45:59;10.10;99.90
56240;DHT22;42154;51.992;5.896;2024-02-21T00:48:25;10.10;99.90
56240;DHT22;42154;51.992;5.896;2024-02-21T00:50:50;10.10;99.90
56240;DHT22;42154;51.992;5.896;2024-02-21T00:53:17;10.10;99.90
56240;DHT22;42154;51.992;5.896;2024-02-21T00:55:43;10.10;99.90
56240;DHT22;42154;51.992;5.896;2024-02-21T00:58:09;10.10;99.90
56240;DHT22;42154;51.992;5.896;2024-02-21T01:00:34;10.10;99.90
56240;DHT22;42154;51.992;5.896;2024-02-21T01:03:00;10.00;99.90
56240;DHT22;42154;51.992;5.896;2024-02-21T01:05:26;10.10;99.90
56240;DHT22;42154;51.992;5.896;2024-02-21T01:07:54;10.00;99.90
56240;DHT22;42154;51.992;5.896;2024-02-21T01:10:20;10.00;99.90
56240;DHT22;42154;51.992;5.896;2024-02-21T01:12:46;10.00;99.90
56240;DHT22;42154;51.992;5.896;2024-02-21T01:15:11;10.00;99.90
56240;DHT22;42154;51.992;5.896;2024-02-21T01:17:37;10.00;99.90
56240;DHT22;42154;51.992;5.896;2024-02-21T01:20:04;10.10;99.90
56240;DHT22;42154;51.992;5.896;2024-02-21T01:22:32;10.00;99.90
56240;DHT22;42154;51.992;5.896;2024-02-21T01:24:58;10.00;99.90
56240;DHT22;42154;51.992;5.896;2024-02-21T01:27:24;10.00;99.90
56240;DHT22;42154;51.992;5.896;2024-02-21T01:29:50;10.00;99.90
56240;DHT22;42154;51.992;5.896;2024-02-21T01:32:16;10.00;99.90
56240;DHT22;42154;51.992;5.896;2024-02-21T01:34:41;10.00;99.90
56240;DHT22;42154;51.992;5.896;2024-02-21T01:37:07;10.00;99.90
56240;DHT22;42154;51.992;5.896;2024-02-21T01:39:33;10.00;99.90
56240;DHT22;42154;51.992;5.896;2024-02-21T01:41:59;10.00;99.90
56240;DHT22;42154;51.992;5.896;2024-02-21T01:44:25;10.00;99.90
56240;DHT22;42154;51.992;5.896;2024-02-21T01:46:52;10.00;99.90
56240;DHT22;42154;51.992;5.896;2024-02-21T01:49:21;10.00;99.90
56240;DHT22;42154;51.992;5.896;2024-02-21T01:51:47;10.00;99.90
56240;DHT22;42154;51.992;5.896;2024-02-21T01:54:14;10.00;99.90
56240;DHT22;42154;51.992;5.896;2024-02-21T01:56:44;10.00;99.90
56240;DHT22;42154;51.992;5.896;2024-02-21T01:59:11;10.00;99.90
56240;DHT22;42154;51.992;5.896;2024-02-21T02:01:37;10.00;99.90
56240;DHT22;42154;51.992;5.896;2024-02-21T02:04:04;10.00;99.90
56240;DHT22;42154;51.992;5.896;2024-02-21T02:06:31;10.00;99.90
56240;DHT22;42154;51.992;5.896;2024-02-21T02:08:57;9.90;99.90
56240;DHT22;42154;51.992;5.896;2024-02-21T02:11:23;10.00;99.90
56240;DHT22;42154;51.992;5.896;2024-02-21T02:13:48;10.00;99.90
56240;DHT22;42154;51.992;5.896;2024-02-21T02:16:14;10.00;99.90
56240;DHT22;42154;51.992;5.896;2024-02-21T02:18:40;10.00;99.90
56240;DHT22;42154;51.992;5.896;2024-02-21T02:21:23;10.00;99.90
56240;DHT22;42154;51.992;5.896;2024-02-21T02:23:51;10.00;99.90
56240;DHT22;42154;51.992;5.896;2024-02-21T02:26:16;9.90;99.90
56240;DHT22;42154;51.992;5.896;2024-02-21T02:28:42;9.90;99.90
56240;DHT22;42154;51.992;5.896;2024-02-21T02:31:08;9.90;99.90
56240;DHT22;42154;51.992;5.896;2024-02-21T02:33:33;9.90;99.90
56240;DHT22;42154;51.992;5.896;2024-02-21T02:35:59;9.90;99.90
56240;DHT22;42154;51.992;5.896;2024-02-21T02:38:25;9.90;99.90
56240;DHT22;42154;51.992;5.896;2024-02-21T02:40:50;9.90;99.90
56240;DHT22;42154;51.992;5.896;2024-02-21T02:43:16;9.90;99.90
56240;DHT22;42154;51.992;5.896;2024-02-21T02:45:42;9.90;99.90
56240;DHT22;42154;51.992;5.896;2024-02-21T02:48:08;9.90;99.90
56240;DHT22;42154;51.992;5.896;2024-02-21T02:50:33;9.90;99.90
56240;DHT22;42154;51.992;5.896;2024-02-21T02:52:59;9.90;99.90
56240;DHT22;42154;51.992;5.896;2024-02-21T02:55:25;9.90;99.90
56240;DHT22;42154;51.992;5.896;2024-02-21T02:57:51;9.90;99.90
56240;DHT22;42154;51.992;5.896;2024-02-21T03:00:17;9.90;99.90
56240;DHT22;42154;51.992;5.896;2024-02-21T03:02:45;9.90;99.90
56240;DHT22;42154;51.992;5.896;2024-02-21T03:05:16;9.90;99.90
56240;DHT22;42154;51.992;5.896;2024-02-21T03:07:42;9.90;99.90
56240;DHT22;42154;51.992;5.896;2024-02-21T03:10:08;9.90;99.90
56240;DHT22;42154;51.992;5.896;2024-02-21T03:12:34;9.90;99.90
56240;DHT22;42154;51.992;5.896;2024-02-21T03:15:00;9.90;99.90
56240;DHT22;42154;51.992;5.896;2024-02-21T03:17:26;9.90;99.90
56240;DHT22;42154;51.992;5.896;2024-02-21T03:19:54;9.90;99.90
56240;DHT22;42154;51.992;5.896;2024-02-21T03:22:24;9.90;99.90
56240;DHT22;42154;51.992;5.896;2024-02-21T03:24:50;9.90;99.90
56240;DHT22;42154;51.992;5.896;2024-02-21T03:27:15;9.90;99.90
56240;DHT22;42154;51.992;5.896;2024-02-21T03:29:41;9.90;99.90
56240;DHT22;42154;51.992;5.896;2024-02-21T03:32:07;9.90;99.90
56240;DHT22;42154;51.992;5.896;2024-02-21T03:34:32;9.90;99.90
56240;DHT22;42154;51.992;5.896;2024-02-21T03:36:59;9.90;99.90
56240;DHT22;42154;51.992;5.896;2024-02-21T03:39:25;9.90;99.90
56240;DHT22;42154;51.992;5.896;2024-02-21T03:41:51;9.90;99.90
56240;DHT22;42154;51.992;5.896;2024-02-21T03:44:17;9.90;99.90
56240;DHT22;42154;51.992;5.896;2024-02-21T03:46:43;9.90;99.90
56240;DHT22;42154;51.992;5.896;2024-02-21T03:49:09;9.90;99.90
56240;DHT22;42154;51.992;5.896;2024-02-21T03:51:34;9.90;99.90
56240;DHT22;42154;51.992;5.896;2024-02-21T03:54:00;9.90;99.90
56240;DHT22;42154;51.992;5.896;2024-02-21T03:56:26;9.90;99.90
56240;DHT22;42154;51.992;5.896;2024-02-21T03:58:52;9.90;99.90
56240;DHT22;42154;51.992;5.896;2024-02-21T04:01:18;9.90;99.90
56240;DHT22;42154;51.992;5.896;2024-02-21T04:03:44;9.90;99.90
56240;DHT22;42154;51.992;5.896;2024-02-21T04:06:09;9.90;99.90
56240;DHT22;42154;51.992;5.896;2024-02-21T04:08:35;9.90;99.90
56240;DHT22;42154;51.992;5.896;2024-02-21T04:11:01;9.90;99.90
56240;DHT22;42154;51.992;5.896;2024-02-21T04:13:27;9.90;99.90
56240;DHT22;42154;51.992;5.896;2024-02-21T04:15:53;9.90;99.90
56240;DHT22;42154;51.992;5.896;2024-02-21T04:18:18;9.90;99.90
56240;DHT22;42154;51.992;5.896;2024-02-21T04:20:44;9.90;99.90
56240;DHT22;42154;51.992;5.896;2024-02-21T04:23:10;9.90;99.90
56240;DHT22;42154;51.992;5.896;2024-02-21T04:25:36;9.90;99.90
56240;DHT22;42154;51.992;5.896;2024-02-21T04:28:02;9.90;99.90
56240;DHT22;42154;51.992;5.896;2024-02-21T04:30:28;9.90;99.90
56240;DHT22;42154;51.992;5.896;2024-02-21T04:32:54;9.90;99.90
56240;DHT22;42154;51.992;5.896;2024-02-21T04:35:20;9.90;99.90
56240;DHT22;42154;51.992;5.896;2024-02-21T04:37:46;9.90;99.90
56240;DHT22;42154;51.992;5.896;2024-02-21T04:40:12;9.90;99.90
56240;DHT22;42154;51.992;5.896;2024-02-21T04:42:38;9.90;99.90
56240;DHT22;42154;51.992;5.896;2024-02-21T04:45:05;9.90;99.90
56240;DHT22;42154;51.992;5.896;2024-02-21T04:47:30;9.90;99.90
56240;DHT22;42154;51.992;5.896;2024-02-21T04:49:56;9.90;99.90
56240;DHT22;42154;51.992;5.896;2024-02-21T04:52:22;9.90;99.90
56240;DHT22;42154;51.992;5.896;2024-02-21T04:54:47;9.90;99.90
56240;DHT22;42154;51.992;5.896;2024-02-21T04:57:14;9.90;99.90
56240;DHT22;42154;51.992;5.896;2024-02-21T04:59:44;9.90;99.90
56240;DHT22;42154;51.992;5.896;2024-02-21T05:02:11;9.90;99.90
56240;DHT22;42154;51.992;5.896;2024-02-21T05:04:36;9.90;99.90
56240;DHT22;42154;51.992;5.896;2024-02-21T05:07:04;9.90;99.90
56240;DHT22;42154;51.992;5.896;2024-02-21T05:09:30;9.90;99.90
56240;DHT22;42154;51.992;5.896;2024-02-21T05:11:56;9.90;99.90
56240;DHT22;42154;51.992;5.896;2024-02-21T05:14:24;9.90;99.90
56240;DHT22;42154;51.992;5.896;2024-02-21T05:16:50;9.90;99.90
56240;DHT22;42154;51.992;5.896;2024-02-21T05:19:16;9.90;99.90
56240;DHT22;42154;51.992;5.896;2024-02-21T05:21:41;9.90;99.90
56240;DHT22;42154;51.992;5.896;2024-02-21T05:24:07;9.90;99.90
56240;DHT22;42154;51.992;5.896;2024-02-21T05:26:33;9.90;99.90
56240;DHT22;42154;51.992;5.896;2024-02-21T05:28:58;9.90;99.90
56240;DHT22;42154;51.992;5.896;2024-02-21T05:31:25;9.90;99.90
56240;DHT22;42154;51.992;5.896;2024-02-21T05:33:51;9.80;99.90
56240;DHT22;42154;51.992;5.896;2024-02-21T05:36:16;9.80;99.90
56240;DHT22;42154;51.992;5.896;2024-02-21T05:38:42;9.80;99.90
56240;DHT22;42154;51.992;5.896;2024-02-21T05:41:08;9.80;99.90
56240;DHT22;42154;51.992;5.896;2024-02-21T05:43:34;9.80;99.90
56240;DHT22;42154;51.992;5.896;2024-02-21T05:45:59;9.80;99.90
56240;DHT22;42154;51.992;5.896;2024-02-21T05:48:25;9.80;99.90
56240;DHT22;42154;51.992;5.896;2024-02-21T05:50:51;9.80;99.90
56240;DHT22;42154;51.992;5.896;2024-02-21T05:53:17;9.80;99.90
56240;DHT22;42154;51.992;5.896;2024-02-21T05:55:43;9.80;99.90
56240;DHT22;42154;51.992;5.896;2024-02-21T05:58:09;9.80;99.90
56240;DHT22;42154;51.992;5.896;2024-02-21T06:00:38;9.80;99.90
56240;DHT22;42154;51.992;5.896;2024-02-21T06:03:04;9.80;99.90
56240;DHT22;42154;51.992;5.896;2024-02-21T06:05:30;9.80;99.90
56240;DHT22;42154;51.992;5.896;2024-02-21T06:07:57;9.80;99.90
56240;DHT22;42154;51.992;5.896;2024-02-21T06:10:23;9.80;99.90
56240;DHT22;42154;51.992;5.896;2024-02-21T06:12:49;9.80;99.90
56240;DHT22;42154;51.992;5.896;2024-02-21T06:15:14;9.80;99.90
56240;DHT22;42154;51.992;5.896;2024-02-21T06:17:40;9.80;99.90
56240;DHT22;42154;51.992;5.896;2024-02-21T06:20:06;9.80;99.90
56240;DHT22;42154;51.992;5.896;2024-02-21T06:22:32;9.80;99.90
56240;DHT22;42154;51.992;5.896;2024-02-21T06:24:58;9.70;99.90
56240;DHT22;42154;51.992;5.896;2024-02-21T06:27:24;9.80;99.90
56240;DHT22;42154;51.992;5.896;2024-02-21T06:29:51;9.80;99.90
56240;DHT22;42154;51.992;5.896;2024-02-21T06:32:17;9.80;99.90
56240;DHT22;42154;51.992;5.896;2024-02-21T06:34:42;9.80;99.90
56240;DHT22;42154;51.992;5.896;2024-02-21T06:37:09;9.80;99.90
56240;DHT22;42154;51.992;5.896;2024-02-21T06:39:34;9.80;99.90
56240;DHT22;42154;51.992;5.896;2024-02-21T06:42:03;9.80;99.90
56240;DHT22;42154;51.992;5.896;2024-02-21T06:44:28;9.80;99.90
56240;DHT22;42154;51.992;5.896;2024-02-21T06:46:54;9.80;99.90
56240;DHT22;42154;51.992;5.896;2024-02-21T06:49:20;9.80;99.90
56240;DHT22;42154;51.992;5.896;2024-02-21T06:51:46;9.80;99.90
56240;DHT22;42154;51.992;5.896;2024-02-21T06:54:11;9.80;99.90
56240;DHT22;42154;51.992;5.896;2024-02-21T06:56:39;9.80;99.90
56240;DHT22;42154;51.992;5.896;2024-02-21T06:59:05;9.80;99.90
56240;DHT22;42154;51.992;5.896;2024-02-21T07:01:31;9.80;99.90
56240;DHT22;42154;51.992;5.896;2024-02-21T07:03:57;9.80;99.90
56240;DHT22;42154;51.992;5.896;2024-02-21T07:06:23;9.80;99.90
56240;DHT22;42154;51.992;5.896;2024-02-21T07:08:49;9.80;99.90
56240;DHT22;42154;51.992;5.896;2024-02-21T07:11:15;9.80;99.90
56240;DHT22;42154;51.992;5.896;2024-02-21T07:13:40;9.80;99.90
56240;DHT22;42154;51.992;5.896;2024-02-21T07:16:07;9.80;99.90
56240;DHT22;42154;51.992;5.896;2024-02-21T07:18:32;9.80;99.90
56240;DHT22;42154;51.992;5.896;2024-02-21T07:20:58;9.90;99.90
56240;DHT22;42154;51.992;5.896;2024-02-21T07:23:24;9.90;99.90
56240;DHT22;42154;51.992;5.896;2024-02-21T07:25:50;9.90;99.90
56240;DHT22;42154;51.992;5.896;2024-02-21T07:28:16;9.90;99.90
56240;DHT22;42154;51.992;5.896;2024-02-21T07:30:43;9.90;99.90
56240;DHT22;42154;51.992;5.896;2024-02-21T07:33:08;9.90;99.90
56240;DHT22;42154;51.992;5.896;2024-02-21T07:35:35;9.90;99.90
56240;DHT22;42154;51.992;5.896;2024-02-21T07:38:04;9.90;99.90
56240;DHT22;42154;51.992;5.896;2024-02-21T07:40:30;9.90;99.90
56240;DHT22;42154;51.992;5.896;2024-02-21T07:42:56;10.00;99.90
56240;DHT22;42154;51.992;5.896;2024-02-21T07:45:22;10.00;99.90
56240;DHT22;42154;51.992;5.896;2024-02-21T07:47:50;10.00;99.90
56240;DHT22;42154;51.992;5.896;2024-02-21T07:50:16;9.90;99.90
56240;DHT22;42154;51.992;5.896;2024-02-21T07:52:42;9.90;99.90
56240;DHT22;42154;51.992;5.896;2024-02-21T07:55:08;10.00;99.90
56240;DHT22;42154;51.992;5.896;2024-02-21T07:57:36;10.00;99.90
56240;DHT22;42154;51.992;5.896;2024-02-21T08:00:02;10.00;99.90
56240;DHT22;42154;51.992;5.896;2024-02-21T08:02:38;10.00;99.90
56240;DHT22;42154;51.992;5.896;2024-02-21T08:05:04;10.00;99.90
56240;DHT22;42154;51.992;5.896;2024-02-21T08:07:29;10.00;99.90
56240;DHT22;42154;51.992;5.896;2024-02-21T08:09:56;10.00;99.90
56240;DHT22;42154;51.992;5.896;2024-02-21T08:12:22;10.00;99.90
56240;DHT22;42154;51.992;5.896;2024-02-21T08:14:48;10.00;99.90
56240;DHT22;42154;51.992;5.896;2024-02-21T08:17:13;10.10;99.90
56240;DHT22;42154;51.992;5.896;2024-02-21T08:19:39;10.00;99.90
56240;DHT22;42154;51.992;5.896;2024-02-21T08:22:05;10.10;99.90
56240;DHT22;42154;51.992;5.896;2024-02-21T08:24:31;10.10;99.90
56240;DHT22;42154;51.992;5.896;2024-02-21T08:26:57;10.20;99.90
56240;DHT22;42154;51.992;5.896;2024-02-21T08:29:22;10.20;99.90
56240;DHT22;42154;51.992;5.896;2024-02-21T08:31:48;10.20;99.90
56240;DHT22;42154;51.992;5.896;2024-02-21T08:34:14;10.20;99.90
56240;DHT22;42154;51.992;5.896;2024-02-21T08:36:40;10.30;99.90
56240;DHT22;42154;51.992;5.896;2024-02-21T08:39:06;10.30;99.90
56240;DHT22;42154;51.992;5.896;2024-02-21T08:41:34;10.30;99.90
56240;DHT22;42154;51.992;5.896;2024-02-21T08:44:00;10.30;99.90
56240;DHT22;42154;51.992;5.896;2024-02-21T08:46:26;10.30;99.90
56240;DHT22;42154;51.992;5.896;2024-02-21T08:48:54;10.30;99.90
56240;DHT22;42154;51.992;5.896;2024-02-21T08:51:20;10.30;99.90
56240;DHT22;42154;51.992;5.896;2024-02-21T08:53:47;10.30;99.90
56240;DHT22;42154;51.992;5.896;2024-02-21T08:56:12;10.30;99.90
56240;DHT22;42154;51.992;5.896;2024-02-21T08:58:39;10.30;99.90
56240;DHT22;42154;51.992;5.896;2024-02-21T09:01:06;10.30;99.90
56240;DHT22;42154;51.992;5.896;2024-02-21T09:03:33;10.40;99.90
56240;DHT22;42154;51.992;5.896;2024-02-21T09:05:59;10.40;99.90
56240;DHT22;42154;51.992;5.896;2024-02-21T09:08:26;10.40;99.90
56240;DHT22;42154;51.992;5.896;2024-02-21T09:10:52;10.50;99.90
56240;DHT22;42154;51.992;5.896;2024-02-21T09:13:18;10.50;99.90
56240;DHT22;42154;51.992;5.896;2024-02-21T09:15:44;10.50;99.90
56240;DHT22;42154;51.992;5.896;2024-02-21T09:18:10;10.40;99.90
56240;DHT22;42154;51.992;5.896;2024-02-21T09:20:35;10.50;99.90
56240;DHT22;42154;51.992;5.896;2024-02-21T09:23:01;10.50;99.90
56240;DHT22;42154;51.992;5.896;2024-02-21T09:25:27;10.50;99.90
56240;DHT22;42154;51.992;5.896;2024-02-21T09:27:54;10.60;99.90
56240;DHT22;42154;51.992;5.896;2024-02-21T09:30:20;10.60;99.90
56240;DHT22;42154;51.992;5.896;2024-02-21T09:32:46;10.70;99.90
56240;DHT22;42154;51.992;5.896;2024-02-21T09:35:12;10.70;99.90
56240;DHT22;42154;51.992;5.896;2024-02-21T09:37:39;10.70;99.90
56240;DHT22;42154;51.992;5.896;2024-02-21T09:40:05;10.80;99.90
56240;DHT22;42154;51.992;5.896;2024-02-21T09:42:40;10.80;99.90
56240;DHT22;42154;51.992;5.896;2024-02-21T09:50:16;10.90;99.90
56240;DHT22;42154;51.992;5.896;2024-02-21T09:52:43;10.90;99.90
56240;DHT22;42154;51.992;5.896;2024-02-21T09:55:10;10.90;99.90
56240;DHT22;42154;51.992;5.896;2024-02-21T09:57:39;10.90;99.90
56240;DHT22;42154;51.992;5.896;2024-02-21T10:00:05;10.90;99.90
56240;DHT22;42154;51.992;5.896;2024-02-21T10:02:39;10.90;99.90
56240;DHT22;42154;51.992;5.896;2024-02-21T10:05:05;10.90;99.90
56240;DHT22;42154;51.992;5.896;2024-02-21T10:07:33;11.00;99.90
56240;DHT22;42154;51.992;5.896;2024-02-21T10:10:03;10.90;99.90
56240;DHT22;42154;51.992;5.896;2024-02-21T10:12:29;11.00;99.90
56240;DHT22;42154;51.992;5.896;2024-02-21T10:15:05;11.10;99.90
56240;DHT22;42154;51.992;5.896;2024-02-21T10:17:35;11.10;99.90
56240;DHT22;42154;51.992;5.896;2024-02-21T10:20:11;11.10;99.90
56240;DHT22;42154;51.992;5.896;2024-02-21T10:22:38;11.10;99.90
56240;DHT22;42154;51.992;5.896;2024-02-21T10:25:08;11.10;99.90
56240;DHT22;42154;51.992;5.896;2024-02-21T10:27:35;11.10;99.90
56240;DHT22;42154;51.992;5.896;2024-02-21T10:30:01;11.20;99.90
56240;DHT22;42154;51.992;5.896;2024-02-21T10:32:27;11.10;99.90
56240;DHT22;42154;51.992;5.896;2024-02-21T10:35:04;11.10;99.90
56240;DHT22;42154;51.992;5.896;2024-02-21T10:37:34;11.00;99.90
56240;DHT22;42154;51.992;5.896;2024-02-21T10:40:00;11.00;99.90
56240;DHT22;42154;51.992;5.896;2024-02-21T10:42:29;10.90;99.90
56240;DHT22;42154;51.992;5.896;2024-02-21T10:45:01;10.90;99.90
56240;DHT22;42154;51.992;5.896;2024-02-21T10:47:32;10.90;99.90
56240;DHT22;42154;51.992;5.896;2024-02-21T10:50:02;10.90;99.90
56240;DHT22;42154;51.992;5.896;2024-02-21T10:52:44;10.90;99.90
56240;DHT22;42154;51.992;5.896;2024-02-21T10:55:32;10.80;99.90
56240;DHT22;42154;51.992;5.896;2024-02-21T10:57:59;10.80;99.90
56240;DHT22;42154;51.992;5.896;2024-02-21T11:00:26;10.80;99.90
56240;DHT22;42154;51.992;5.896;2024-02-21T11:02:57;10.80;99.90
56240;DHT22;42154;51.992;5.896;2024-02-21T11:05:24;10.80;99.90
56240;DHT22;42154;51.992;5.896;2024-02-21T11:07:51;10.80;99.90
56240;DHT22;42154;51.992;5.896;2024-02-21T11:10:26;10.80;99.90
56240;DHT22;42154;51.992;5.896;2024-02-21T11:13:11;10.90;99.90
56240;DHT22;42154;51.992;5.896;2024-02-21T11:15:36;10.90;99.90
56240;DHT22;42154;51.992;5.896;2024-02-21T11:18:02;10.90;99.90
56240;DHT22;42154;51.992;5.896;2024-02-21T11:20:37;10.90;99.90
56240;DHT22;42154;51.992;5.896;2024-02-21T11:23:04;11.00;99.90
56240;DHT22;42154;51.992;5.896;2024-02-21T11:25:30;10.90;99.90
56240;DHT22;42154;51.992;5.896;2024-02-21T11:28:04;11.00;99.90
56240;DHT22;42154;51.992;5.896;2024-02-21T11:30:31;10.90;99.90
56240;DHT22;42154;51.992;5.896;2024-02-21T11:33:06;10.90;99.90
56240;DHT22;42154;51.992;5.896;2024-02-21T11:35:36;10.90;99.90
56240;DHT22;42154;51.992;5.896;2024-02-21T11:38:12;10.90;99.90
56240;DHT22;42154;51.992;5.896;2024-02-21T11:40:46;10.90;99.90
56240;DHT22;42154;51.992;5.896;2024-02-21T11:43:11;10.80;99.90
56240;DHT22;42154;51.992;5.896;2024-02-21T11:45:37;10.80;99.90
56240;DHT22;42154;51.992;5.896;2024-02-21T11:48:08;10.80;99.90
56240;DHT22;42154;51.992;5.896;2024-02-21T11:50:36;10.80;99.90
56240;DHT22;42154;51.992;5.896;2024-02-21T11:53:02;10.90;99.90
56240;DHT22;42154;51.992;5.896;2024-02-21T11:55:29;10.80;99.90
56240;DHT22;42154;51.992;5.896;2024-02-21T11:57:55;10.80;99.90
56240;DHT22;42154;51.992;5.896;2024-02-21T12:00:21;10.80;99.90
56240;DHT22;42154;51.992;5.896;2024-02-21T12:02:47;10.80;99.90
56240;DHT22;42154;51.992;5.896;2024-02-21T12:05:13;10.80;99.90
56240;DHT22;42154;51.992;5.896;2024-02-21T12:07:40;10.70;99.90
56240;DHT22;42154;51.992;5.896;2024-02-21T12:10:10;10.80;99.90
56240;DHT22;42154;51.992;5.896;2024-02-21T12:12:37;10.80;99.90
56240;DHT22;42154;51.992;5.896;2024-02-21T12:15:04;10.70;99.90
56240;DHT22;42154;51.992;5.896;2024-02-21T12:17:32;10.80;99.90
56240;DHT22;42154;51.992;5.896;2024-02-21T12:19:59;10.90;99.90
56240;DHT22;42154;51.992;5.896;2024-02-21T12:22:25;11.00;99.90
56240;DHT22;42154;51.992;5.896;2024-02-21T12:24:51;11.00;99.90
56240;DHT22;42154;51.992;5.896;2024-02-21T12:27:17;11.10;99.90
56240;DHT22;42154;51.992;5.896;2024-02-21T12:29:43;11.20;99.90
56240;DHT22;42154;51.992;5.896;2024-02-21T12:32:09;11.30;99.90
56240;DHT22;42154;51.992;5.896;2024-02-21T12:34:34;11.40;99.90
56240;DHT22;42154;51.992;5.896;2024-02-21T12:37:02;11.50;99.90
56240;DHT22;42154;51.992;5.896;2024-02-21T12:39:28;11.60;99.90
56240;DHT22;42154;51.992;5.896;2024-02-21T12:41:55;11.70;99.90
56240;DHT22;42154;51.992;5.896;2024-02-21T12:44:22;11.70;99.90
56240;DHT22;42154;51.992;5.896;2024-02-21T12:46:47;11.70;99.90
56240;DHT22;42154;51.992;5.896;2024-02-21T12:49:19;11.80;99.90
56240;DHT22;42154;51.992;5.896;2024-02-21T12:51:45;11.80;99.90
56240;DHT22;42154;51.992;5.896;2024-02-21T12:54:12;11.80;99.90
56240;DHT22;42154;51.992;5.896;2024-02-21T12:56:38;11.90;99.90
56240;DHT22;42154;51.992;5.896;2024-02-21T12:59:05;11.80;99.90
56240;DHT22;42154;51.992;5.896;2024-02-21T13:01:35;11.80;99.90
56240;DHT22;42154;51.992;5.896;2024-02-21T13:04:01;11.80;99.90
56240;DHT22;42154;51.992;5.896;2024-02-21T13:06:27;11.80;99.90
56240;DHT22;42154;51.992;5.896;2024-02-21T13:08:53;11.80;99.90
56240;DHT22;42154;51.992;5.896;2024-02-21T13:11:19;11.80;99.90
56240;DHT22;42154;51.992;5.896;2024-02-21T13:13:45;11.70;99.90
56240;DHT22;42154;51.992;5.896;2024-02-21T13:16:11;11.70;99.90
56240;DHT22;42154;51.992;5.896;2024-02-21T13:18:36;11.70;99.90
56240;DHT22;42154;51.992;5.896;2024-02-21T13:21:08;11.70;99.90
56240;DHT22;42154;51.992;5.896;2024-02-21T13:23:34;11.70;99.90
56240;DHT22;42154;51.992;5.896;2024-02-21T13:25:59;11.80;99.90
56240;DHT22;42154;51.992;5.896;2024-02-21T13:28:25;11.80;99.90
56240;DHT22;42154;51.992;5.896;2024-02-21T13:30:51;11.80;99.90
56240;DHT22;42154;51.992;5.896;2024-02-21T13:33:16;11.80;99.90
56240;DHT22;42154;51.992;5.896;2024-02-21T13:35:43;11.80;99.90
56240;DHT22;42154;51.992;5.896;2024-02-21T13:38:08;11.80;99.90
56240;DHT22;42154;51.992;5.896;2024-02-21T13:40:35;11.80;99.90
56240;DHT22;42154;51.992;5.896;2024-02-21T13:43:01;11.80;99.90
56240;DHT22;42154;51.992;5.896;2024-02-21T13:45:27;11.80;99.90
56240;DHT22;42154;51.992;5.896;2024-02-21T13:47:53;11.90;99.90
56240;DHT22;42154;51.992;5.896;2024-02-21T13:50:20;11.90;99.90
56240;DHT22;42154;51.992;5.896;2024-02-21T13:52:54;11.90;99.90
56240;DHT22;42154;51.992;5.896;2024-02-21T13:55:20;11.90;99.90
56240;DHT22;42154;51.992;5.896;2024-02-21T13:57:48;11.80;99.90
56240;DHT22;42154;51.992;5.896;2024-02-21T14:00:15;11.80;99.90
56240;DHT22;42154;51.992;5.896;2024-02-21T14:02:40;11.80;99.90
56240;DHT22;42154;51.992;5.896;2024-02-21T14:05:06;11.90;99.90
56240;DHT22;42154;51.992;5.896;2024-02-21T14:07:33;11.90;99.90
56240;DHT22;42154;51.992;5.896;2024-02-21T14:09:59;11.90;99.90
56240;DHT22;42154;51.992;5.896;2024-02-21T14:12:24;11.90;99.90
56240;DHT22;42154;51.992;5.896;2024-02-21T14:14:50;11.90;99.90
56240;DHT22;42154;51.992;5.896;2024-02-21T14:17:18;11.90;99.90
56240;DHT22;42154;51.992;5.896;2024-02-21T14:19:43;11.90;99.90
56240;DHT22;42154;51.992;5.896;2024-02-21T14:22:10;11.90;99.90
56240;DHT22;42154;51.992;5.896;2024-02-21T14:24:37;11.90;99.90
56240;DHT22;42154;51.992;5.896;2024-02-21T14:27:03;11.90;99.90
56240;DHT22;42154;51.992;5.896;2024-02-21T14:29:29;11.90;99.90
56240;DHT22;42154;51.992;5.896;2024-02-21T14:31:54;11.90;99.90
56240;DHT22;42154;51.992;5.896;2024-02-21T14:34:20;11.90;99.90
56240;DHT22;42154;51.992;5.896;2024-02-21T14:36:46;11.90;99.90
56240;DHT22;42154;51.992;5.896;2024-02-21T14:39:12;11.90;99.90
56240;DHT22;42154;51.992;5.896;2024-02-21T14:41:37;11.80;99.90
56240;DHT22;42154;51.992;5.896;2024-02-21T14:44:05;11.80;99.90
56240;DHT22;42154;51.992;5.896;2024-02-21T14:46:31;11.80;99.90
56240;DHT22;42154;51.992;5.896;2024-02-21T14:48:57;11.80;99.90
56240;DHT22;42154;51.992;5.896;2024-02-21T14:51:23;11.70;99.90
56240;DHT22;42154;51.992;5.896;2024-02-21T14:53:49;11.70;99.90
56240;DHT22;42154;51.992;5.896;2024-02-21T14:56:15;11.80;99.90
56240;DHT22;42154;51.992;5.896;2024-02-21T14:58:42;11.70;99.90
56240;DHT22;42154;51.992;5.896;2024-02-21T15:01:08;11.70;99.90
56240;DHT22;42154;51.992;5.896;2024-02-21T15:03:35;11.70;99.90
56240;DHT22;42154;51.992;5.896;2024-02-21T15:06:01;11.70;99.90
56240;DHT22;42154;51.992;5.896;2024-02-21T15:08:27;11.70;99.90
56240;DHT22;42154;51.992;5.896;2024-02-21T15:10:54;11.60;99.90
56240;DHT22;42154;51.992;5.896;2024-02-21T15:13:20;11.60;99.90
56240;DHT22;42154;51.992;5.896;2024-02-21T15:15:47;11.70;99.90
56240;DHT22;42154;51.992;5.896;2024-02-21T15:18:17;11.60;99.90
56240;DHT22;42154;51.992;5.896;2024-02-21T15:20:44;11.60;99.90
56240;DHT22;42154;51.992;5.896;2024-02-21T15:23:10;11.60;99.90
56240;DHT22;42154;51.992;5.896;2024-02-21T15:25:36;11.60;99.90
56240;DHT22;42154;51.992;5.896;2024-02-21T15:28:03;11.50;99.90
56240;DHT22;42154;51.992;5.896;2024-02-21T15:30:32;11.50;99.90
56240;DHT22;42154;51.992;5.896;2024-02-21T15:32:58;11.50;99.90
56240;DHT22;42154;51.992;5.896;2024-02-21T15:35:30;11.40;99.90
56240;DHT22;42154;51.992;5.896;2024-02-21T15:37:57;11.40;99.90